Cape Romanzof Lrrs Airport
PACZ : now visible

Aeroporto :











RITROVATECI SU...

 
LOGIN :

Iscrizione | Disclaimer

   EN    FR    IT 

 









Sommario :    VFR   VFR Marginale   IFR   IFR Intensivo   IFR Molto Intensivo
Visibilità : 
Base nubi : 
>= 8 km
>= 3000ft
5 / 8 km
1000 / 3000 ft
1500m / 5 km
500 / 1000 ft
800 / 1500m
200 / 500 ft
< 800m
< 200 ft
Simboli :   Temporali  Nebbia  Neve Forte  Precipitazioni Forti  Vento > 20 kt






- Altitudine del aeroporto : 464 ft
- Codice IATA : CZF


PACZ - Cape Romanzof Lrrs

ULTIMO METAR :
  • 072255Z AUTO 02014KT 10SM FEW004 M15/M17 A2999 RMK AO2 SHSNB2149E2209 SLP175 T11491169

METARs OBSOLETI :
  • 072227Z AUTO 02017KT 10SM BKN004 M15/M17 A2999 RMK AO2 SLP174
  • 072207Z AUTO 03016KT 10SM SCT003 M15/M17 A3000 RMK AO2 SLP175
  • 072155Z AUTO 03017KT 10SM -SHSN FEW004 M15/M17 A3000 RMK AO2 SNB2122E2124B2146E2149SHSNB2149 SLP175 P0000 T11521172
  • 072147Z AUTO 03017KT 10SM -SN CLR M15/M17 A3000 RMK AO2 SLP175
  • 072055Z AUTO 02016KT 010V160 10SM CLR M15/M17 A2999 RMK AO2 SLP173 T11511174 52004

Previsioni scadute.



MetMap, La meteo Aeronautica in un colpo d'occhio ! - Copyright ORBIFLY Dicembre 2007 - Disclaimer

ORBIFLY MET'MAP TEAM :

Programmazione e sviluppo : Alexandra Zaïnal
Concezione : Baudouin d'Aumeries
Aiuto per la programmazione : Marc-Olivier Méhu
Supporto tecnico e logistico : Manuel Goepfert
Aiuto per la traduzione : Arnaldo La Scala

Contatto : metmap@orbifly.com




FONTI E CREDITI :

   NOAA       Earth
Advisory